sensor_id;sensor_type;location;lat;lon;timestamp;pressure;altitude;pressure_sealevel;temperature;humidity
8653;BME280;4364;52.426;9.424;2023-09-07T00:00:31;101721.97;;;17.92;84.90
8653;BME280;4364;52.426;9.424;2023-09-07T00:02:58;101722.88;;;17.87;84.37
8653;BME280;4364;52.426;9.424;2023-09-07T00:05:26;101720.75;;;17.79;84.54
8653;BME280;4364;52.426;9.424;2023-09-07T00:07:53;101722.72;;;17.78;84.03
8653;BME280;4364;52.426;9.424;2023-09-07T00:10:19;101711.59;;;17.70;84.41
8653;BME280;4364;52.426;9.424;2023-09-07T00:12:46;101716.88;;;17.66;84.76
8653;BME280;4364;52.426;9.424;2023-09-07T00:15:12;101708.16;;;17.59;85.50
8653;BME280;4364;52.426;9.424;2023-09-07T00:17:39;101712.94;;;17.53;85.75
8653;BME280;4364;52.426;9.424;2023-09-07T00:20:06;101708.63;;;17.47;86.45
8653;BME280;4364;52.426;9.424;2023-09-07T00:22:37;101708.41;;;17.44;86.86
8653;BME280;4364;52.426;9.424;2023-09-07T00:25:04;101710.06;;;17.45;86.97
8653;BME280;4364;52.426;9.424;2023-09-07T00:27:33;101712.31;;;17.43;87.44
8653;BME280;4364;52.426;9.424;2023-09-07T00:30:02;101710.75;;;17.36;87.96
8653;BME280;4364;52.426;9.424;2023-09-07T00:32:32;101713.41;;;17.41;87.86
8653;BME280;4364;52.426;9.424;2023-09-07T00:34:59;101712.97;;;17.34;87.67
8653;BME280;4364;52.426;9.424;2023-09-07T00:37:25;101713.06;;;17.29;87.75
8653;BME280;4364;52.426;9.424;2023-09-07T00:39:52;101715.34;;;17.22;88.63
8653;BME280;4364;52.426;9.424;2023-09-07T00:42:19;101715.03;;;17.23;88.02
8653;BME280;4364;52.426;9.424;2023-09-07T00:44:45;101712.66;;;17.17;88.29
8653;BME280;4364;52.426;9.424;2023-09-07T00:47:12;101715.41;;;17.17;88.36
8653;BME280;4364;52.426;9.424;2023-09-07T00:49:40;101721.22;;;17.15;88.45
8653;BME280;4364;52.426;9.424;2023-09-07T00:52:08;101711.34;;;17.14;88.37
8653;BME280;4364;52.426;9.424;2023-09-07T00:54:37;101714.69;;;17.11;88.38
8653;BME280;4364;52.426;9.424;2023-09-07T00:57:05;101715.28;;;17.08;88.19
8653;BME280;4364;52.426;9.424;2023-09-07T00:59:33;101702.94;;;17.06;88.22
8653;BME280;4364;52.426;9.424;2023-09-07T01:02:00;101715.63;;;17.01;88.69
8653;BME280;4364;52.426;9.424;2023-09-07T01:04:29;101710.72;;;16.98;88.64
8653;BME280;4364;52.426;9.424;2023-09-07T01:06:57;101715.13;;;16.99;88.53
8653;BME280;4364;52.426;9.424;2023-09-07T01:09:31;101709.03;;;17.02;88.36
8653;BME280;4364;52.426;9.424;2023-09-07T01:11:58;101703.63;;;16.97;88.44
8653;BME280;4364;52.426;9.424;2023-09-07T01:14:24;101707.97;;;16.98;87.74
8653;BME280;4364;52.426;9.424;2023-09-07T01:16:51;101702.84;;;16.92;88.01
8653;BME280;4364;52.426;9.424;2023-09-07T01:19:18;101702.84;;;16.92;88.58
8653;BME280;4364;52.426;9.424;2023-09-07T01:21:45;101710.28;;;16.91;88.21
8653;BME280;4364;52.426;9.424;2023-09-07T01:24:13;101697.13;;;16.88;88.02
8653;BME280;4364;52.426;9.424;2023-09-07T01:26:41;101695.25;;;16.83;88.43
8653;BME280;4364;52.426;9.424;2023-09-07T01:29:09;101694.41;;;16.88;88.89
8653;BME280;4364;52.426;9.424;2023-09-07T01:31:36;101690.25;;;16.91;88.16
8653;BME280;4364;52.426;9.424;2023-09-07T01:34:05;101687.50;;;16.91;88.08
8653;BME280;4364;52.426;9.424;2023-09-07T01:36:32;101690.00;;;16.87;88.60
8653;BME280;4364;52.426;9.424;2023-09-07T01:39:00;101692.78;;;16.82;88.96
8653;BME280;4364;52.426;9.424;2023-09-07T01:41:27;101687.25;;;16.87;88.73
8653;BME280;4364;52.426;9.424;2023-09-07T01:43:56;101692.78;;;16.82;88.68
8653;BME280;4364;52.426;9.424;2023-09-07T01:46:22;101689.22;;;16.81;89.24
8653;BME280;4364;52.426;9.424;2023-09-07T01:48:49;101686.03;;;16.74;89.99
8653;BME280;4364;52.426;9.424;2023-09-07T01:51:16;101689.72;;;16.64;89.97
8653;BME280;4364;52.426;9.424;2023-09-07T01:53:43;101692.03;;;16.57;90.00
8653;BME280;4364;52.426;9.424;2023-09-07T01:56:09;101693.75;;;16.48;90.06
8653;BME280;4364;52.426;9.424;2023-09-07T01:58:36;101691.03;;;16.48;89.34
8653;BME280;4364;52.426;9.424;2023-09-07T02:01:03;101689.50;;;16.37;89.88
8653;BME280;4364;52.426;9.424;2023-09-07T02:03:30;101693.66;;;16.34;90.27
8653;BME280;4364;52.426;9.424;2023-09-07T02:05:56;101693.66;;;16.34;90.27
8653;BME280;4364;52.426;9.424;2023-09-07T02:08:23;101697.28;;;16.29;90.97
8653;BME280;4364;52.426;9.424;2023-09-07T02:10:49;101692.06;;;16.28;91.12
8653;BME280;4364;52.426;9.424;2023-09-07T02:13:16;101702.53;;;16.26;91.74
8653;BME280;4364;52.426;9.424;2023-09-07T02:15:42;101699.50;;;16.27;91.90
8653;BME280;4364;52.426;9.424;2023-09-07T02:18:09;101700.13;;;16.19;92.10
8653;BME280;4364;52.426;9.424;2023-09-07T02:20:36;101693.00;;;16.18;92.83
8653;BME280;4364;52.426;9.424;2023-09-07T02:23:03;101693.56;;;16.15;93.37
8653;BME280;4364;52.426;9.424;2023-09-07T02:25:29;101692.41;;;15.97;94.43
8653;BME280;4364;52.426;9.424;2023-09-07T02:27:57;101701.16;;;15.99;95.13
8653;BME280;4364;52.426;9.424;2023-09-07T02:30:23;101701.56;;;16.11;95.02
8653;BME280;4364;52.426;9.424;2023-09-07T02:32:50;101699.41;;;16.08;94.83
8653;BME280;4364;52.426;9.424;2023-09-07T02:35:18;101693.97;;;16.03;95.32
8653;BME280;4364;52.426;9.424;2023-09-07T02:37:44;101701.22;;;15.94;95.68
8653;BME280;4364;52.426;9.424;2023-09-07T02:40:11;101700.13;;;15.90;95.54
8653;BME280;4364;52.426;9.424;2023-09-07T02:42:38;101702.63;;;15.86;96.13
8653;BME280;4364;52.426;9.424;2023-09-07T02:45:05;101703.16;;;15.88;97.04
8653;BME280;4364;52.426;9.424;2023-09-07T02:47:32;101707.72;;;15.98;96.22
8653;BME280;4364;52.426;9.424;2023-09-07T02:49:59;101706.69;;;15.94;95.51
8653;BME280;4364;52.426;9.424;2023-09-07T02:52:27;101710.28;;;15.89;95.13
8653;BME280;4364;52.426;9.424;2023-09-07T02:54:53;101720.53;;;15.79;95.77
8653;BME280;4364;52.426;9.424;2023-09-07T02:57:20;101720.00;;;15.71;96.54
8653;BME280;4364;52.426;9.424;2023-09-07T02:59:47;101720.28;;;15.70;97.29
8653;BME280;4364;52.426;9.424;2023-09-07T03:02:13;101711.25;;;15.69;97.19
8653;BME280;4364;52.426;9.424;2023-09-07T03:04:41;101719.28;;;15.61;97.77
8653;BME280;4364;52.426;9.424;2023-09-07T03:07:07;101710.53;;;15.53;98.63
8653;BME280;4364;52.426;9.424;2023-09-07T03:09:36;101712.47;;;15.53;99.17
8653;BME280;4364;52.426;9.424;2023-09-07T03:12:03;101708.44;;;15.40;99.88
8653;BME280;4364;52.426;9.424;2023-09-07T03:14:30;101706.25;;;15.42;100.00
8653;BME280;4364;52.426;9.424;2023-09-07T03:16:59;101702.69;;;15.42;100.00
8653;BME280;4364;52.426;9.424;2023-09-07T03:19:25;101707.69;;;15.34;99.91
8653;BME280;4364;52.426;9.424;2023-09-07T03:21:52;101705.81;;;15.25;100.00
8653;BME280;4364;52.426;9.424;2023-09-07T03:24:20;101708.84;;;15.23;100.00
8653;BME280;4364;52.426;9.424;2023-09-07T03:26:46;101698.75;;;15.18;100.00
8653;BME280;4364;52.426;9.424;2023-09-07T03:29:13;101702.03;;;15.21;100.00
8653;BME280;4364;52.426;9.424;2023-09-07T03:31:40;101706.09;;;15.23;100.00
8653;BME280;4364;52.426;9.424;2023-09-07T03:34:07;101705.28;;;15.23;100.00
8653;BME280;4364;52.426;9.424;2023-09-07T03:36:33;101700.59;;;15.28;100.00
8653;BME280;4364;52.426;9.424;2023-09-07T03:39:00;101710.13;;;15.36;100.00
8653;BME280;4364;52.426;9.424;2023-09-07T03:41:26;101714.19;;;15.44;100.00
8653;BME280;4364;52.426;9.424;2023-09-07T03:43:57;101712.22;;;15.49;100.00
8653;BME280;4364;52.426;9.424;2023-09-07T03:46:26;101710.03;;;15.51;100.00
8653;BME280;4364;52.426;9.424;2023-09-07T03:48:53;101715.00;;;15.44;99.95
8653;BME280;4364;52.426;9.424;2023-09-07T03:51:20;101720.53;;;15.39;99.66
8653;BME280;4364;52.426;9.424;2023-09-07T03:53:46;101712.59;;;15.37;99.98
8653;BME280;4364;52.426;9.424;2023-09-07T03:56:13;101718.31;;;15.41;99.47
8653;BME280;4364;52.426;9.424;2023-09-07T03:58:40;101713.66;;;15.42;99.32
8653;BME280;4364;52.426;9.424;2023-09-07T04:01:08;101721.56;;;15.48;98.24
8653;BME280;4364;52.426;9.424;2023-09-07T04:03:35;101722.47;;;15.38;97.36
8653;BME280;4364;52.426;9.424;2023-09-07T04:06:02;101719.25;;;15.26;97.66
8653;BME280;4364;52.426;9.424;2023-09-07T04:08:29;101724.50;;;15.17;98.14
8653;BME280;4364;52.426;9.424;2023-09-07T04:10:56;101725.84;;;15.20;99.17
8653;BME280;4364;52.426;9.424;2023-09-07T04:13:22;101722.53;;;15.23;99.12
8653;BME280;4364;52.426;9.424;2023-09-07T04:15:49;101726.44;;;15.17;98.63
8653;BME280;4364;52.426;9.424;2023-09-07T04:18:16;101723.09;;;15.20;98.66
8653;BME280;4364;52.426;9.424;2023-09-07T04:20:44;101728.59;;;15.25;98.83
8653;BME280;4364;52.426;9.424;2023-09-07T04:23:11;101729.06;;;15.32;98.84
8653;BME280;4364;52.426;9.424;2023-09-07T04:25:38;101730.69;;;15.33;98.42
8653;BME280;4364;52.426;9.424;2023-09-07T04:28:08;101727.41;;;15.31;98.44
8653;BME280;4364;52.426;9.424;2023-09-07T04:30:39;101741.97;;;15.32;98.02
8653;BME280;4364;52.426;9.424;2023-09-07T04:33:07;101733.19;;;15.30;96.79
8653;BME280;4364;52.426;9.424;2023-09-07T04:35:35;101735.75;;;15.16;97.72
8653;BME280;4364;52.426;9.424;2023-09-07T04:38:02;101732.16;;;15.21;98.27
8653;BME280;4364;52.426;9.424;2023-09-07T04:40:29;101727.75;;;15.25;97.98
8653;BME280;4364;52.426;9.424;2023-09-07T04:42:55;101731.59;;;15.24;98.32
8653;BME280;4364;52.426;9.424;2023-09-07T04:45:22;101738.41;;;15.26;98.11
8653;BME280;4364;52.426;9.424;2023-09-07T04:47:49;101736.00;;;15.19;97.33
8653;BME280;4364;52.426;9.424;2023-09-07T04:50:16;101730.25;;;15.16;98.03
8653;BME280;4364;52.426;9.424;2023-09-07T04:52:43;101726.72;;;15.15;98.97
8653;BME280;4364;52.426;9.424;2023-09-07T04:55:10;101731.84;;;15.27;97.71
8653;BME280;4364;52.426;9.424;2023-09-07T04:57:36;101733.75;;;15.27;97.50
8653;BME280;4364;52.426;9.424;2023-09-07T05:00:07;101727.78;;;15.19;98.14
8653;BME280;4364;52.426;9.424;2023-09-07T05:02:35;101723.41;;;15.18;98.64
8653;BME280;4364;52.426;9.424;2023-09-07T05:05:07;101731.66;;;15.08;99.33
8653;BME280;4364;52.426;9.424;2023-09-07T05:07:33;101722.88;;;15.11;99.35
8653;BME280;4364;52.426;9.424;2023-09-07T05:10:00;101720.22;;;15.01;100.00
8653;BME280;4364;52.426;9.424;2023-09-07T05:12:29;101728.44;;;14.96;100.00
8653;BME280;4364;52.426;9.424;2023-09-07T05:14:56;101724.34;;;14.98;100.00
8653;BME280;4364;52.426;9.424;2023-09-07T05:17:22;101721.25;;;15.10;100.00
8653;BME280;4364;52.426;9.424;2023-09-07T05:19:49;101723.72;;;15.12;100.00
8653;BME280;4364;52.426;9.424;2023-09-07T05:22:15;101721.78;;;15.12;100.00
8653;BME280;4364;52.426;9.424;2023-09-07T05:24:44;101725.88;;;15.15;100.00
8653;BME280;4364;52.426;9.424;2023-09-07T05:27:13;101725.81;;;15.30;100.00
8653;BME280;4364;52.426;9.424;2023-09-07T05:29:40;101733.16;;;15.35;100.00
8653;BME280;4364;52.426;9.424;2023-09-07T05:32:06;101735.59;;;15.36;100.00
8653;BME280;4364;52.426;9.424;2023-09-07T05:34:35;101737.19;;;15.48;100.00
8653;BME280;4364;52.426;9.424;2023-09-07T05:37:02;101733.06;;;15.50;100.00
8653;BME280;4364;52.426;9.424;2023-09-07T05:39:28;101734.13;;;15.54;100.00
8653;BME280;4364;52.426;9.424;2023-09-07T05:41:56;101735.72;;;15.61;99.21
8653;BME280;4364;52.426;9.424;2023-09-07T05:44:23;101745.84;;;15.65;99.19
8653;BME280;4364;52.426;9.424;2023-09-07T05:46:49;101740.56;;;15.74;98.32
8653;BME280;4364;52.426;9.424;2023-09-07T05:49:16;101749.34;;;15.71;98.47
8653;BME280;4364;52.426;9.424;2023-09-07T05:51:43;101747.41;;;15.77;98.77
8653;BME280;4364;52.426;9.424;2023-09-07T05:54:10;101749.50;;;15.90;97.91
8653;BME280;4364;52.426;9.424;2023-09-07T05:56:36;101749.03;;;15.83;98.03
8653;BME280;4364;52.426;9.424;2023-09-07T05:59:03;101753.06;;;15.90;98.22
8653;BME280;4364;52.426;9.424;2023-09-07T06:01:30;101755.19;;;15.99;97.56
8653;BME280;4364;52.426;9.424;2023-09-07T06:03:56;101757.34;;;16.02;97.68
8653;BME280;4364;52.426;9.424;2023-09-07T06:06:23;101755.69;;;16.06;97.98
8653;BME280;4364;52.426;9.424;2023-09-07T06:08:50;101747.88;;;16.18;96.72
8653;BME280;4364;52.426;9.424;2023-09-07T06:11:16;101746.50;;;16.21;96.98
8653;BME280;4364;52.426;9.424;2023-09-07T06:13:43;101752.44;;;16.28;96.42
8653;BME280;4364;52.426;9.424;2023-09-07T06:16:10;101748.84;;;16.33;95.79
8653;BME280;4364;52.426;9.424;2023-09-07T06:18:37;101755.66;;;16.35;95.27
8653;BME280;4364;52.426;9.424;2023-09-07T06:21:04;101759.75;;;16.38;94.90
8653;BME280;4364;52.426;9.424;2023-09-07T06:23:32;101753.75;;;16.36;95.88
8653;BME280;4364;52.426;9.424;2023-09-07T06:25:59;101752.78;;;16.51;95.29
8653;BME280;4364;52.426;9.424;2023-09-07T06:28:26;101759.59;;;16.53;94.61
8653;BME280;4364;52.426;9.424;2023-09-07T06:30:53;101754.34;;;16.57;95.18
8653;BME280;4364;52.426;9.424;2023-09-07T06:33:20;101761.88;;;16.70;93.83
8653;BME280;4364;52.426;9.424;2023-09-07T06:35:47;101760.94;;;16.80;93.57
8653;BME280;4364;52.426;9.424;2023-09-07T06:38:14;101752.66;;;16.85;93.26
8653;BME280;4364;52.426;9.424;2023-09-07T06:40:47;101758.97;;;16.85;93.52
8653;BME280;4364;52.426;9.424;2023-09-07T06:43:14;101764.09;;;16.92;92.73
8653;BME280;4364;52.426;9.424;2023-09-07T06:45:41;101763.75;;;16.99;93.19
8653;BME280;4364;52.426;9.424;2023-09-07T06:48:08;101760.34;;;17.07;91.78
8653;BME280;4364;52.426;9.424;2023-09-07T06:50:34;101766.91;;;17.11;91.93
8653;BME280;4364;52.426;9.424;2023-09-07T06:53:01;101763.41;;;17.25;90.89
8653;BME280;4364;52.426;9.424;2023-09-07T06:55:29;101763.06;;;17.31;89.89
8653;BME280;4364;52.426;9.424;2023-09-07T06:57:56;101776.72;;;17.36;90.04
8653;BME280;4364;52.426;9.424;2023-09-07T07:00:23;101775.47;;;17.48;88.47
8653;BME280;4364;52.426;9.424;2023-09-07T07:02:50;101766.53;;;17.56;88.05
8653;BME280;4364;52.426;9.424;2023-09-07T07:05:18;101767.88;;;17.58;88.61
8653;BME280;4364;52.426;9.424;2023-09-07T07:07:44;101766.97;;;17.63;88.20
8653;BME280;4364;52.426;9.424;2023-09-07T07:10:11;101772.41;;;17.68;88.75
8653;BME280;4364;52.426;9.424;2023-09-07T07:12:39;101765.41;;;17.76;88.29
8653;BME280;4364;52.426;9.424;2023-09-07T07:15:06;101770.16;;;17.89;86.90
8653;BME280;4364;52.426;9.424;2023-09-07T07:17:33;101766.75;;;18.11;85.64
8653;BME280;4364;52.426;9.424;2023-09-07T07:20:00;101775.84;;;18.26;84.58
8653;BME280;4364;52.426;9.424;2023-09-07T07:22:27;101772.28;;;18.25;84.26
8653;BME280;4364;52.426;9.424;2023-09-07T07:24:55;101779.97;;;18.42;82.60
8653;BME280;4364;52.426;9.424;2023-09-07T07:27:21;101770.28;;;18.45;82.02
8653;BME280;4364;52.426;9.424;2023-09-07T07:29:48;101772.75;;;18.46;82.04
8653;BME280;4364;52.426;9.424;2023-09-07T07:32:15;101771.63;;;18.61;81.32
8653;BME280;4364;52.426;9.424;2023-09-07T07:34:41;101776.31;;;18.61;82.00
8653;BME280;4364;52.426;9.424;2023-09-07T07:37:09;101783.56;;;18.70;81.49
8653;BME280;4364;52.426;9.424;2023-09-07T07:39:36;101783.28;;;18.86;79.69
8653;BME280;4364;52.426;9.424;2023-09-07T07:42:04;101785.22;;;18.85;80.42
8653;BME280;4364;52.426;9.424;2023-09-07T07:44:32;101779.00;;;18.94;80.10
8653;BME280;4364;52.426;9.424;2023-09-07T07:46:59;101783.78;;;19.02;79.76
8653;BME280;4364;52.426;9.424;2023-09-07T07:49:25;101787.03;;;19.18;78.36
8653;BME280;4364;52.426;9.424;2023-09-07T07:51:54;101776.97;;;19.36;78.35
8653;BME280;4364;52.426;9.424;2023-09-07T07:54:22;101784.09;;;19.51;77.79
8653;BME280;4364;52.426;9.424;2023-09-07T07:56:51;101786.47;;;19.66;76.39
8653;BME280;4364;52.426;9.424;2023-09-07T07:59:18;101794.44;;;19.68;76.50
8653;BME280;4364;52.426;9.424;2023-09-07T08:01:45;101782.88;;;19.79;75.70
8653;BME280;4364;52.426;9.424;2023-09-07T08:04:13;101778.25;;;19.89;75.45
8653;BME280;4364;52.426;9.424;2023-09-07T08:06:40;101782.06;;;20.02;74.51
8653;BME280;4364;52.426;9.424;2023-09-07T08:09:07;101784.78;;;20.24;73.48
8653;BME280;4364;52.426;9.424;2023-09-07T08:11:34;101780.94;;;20.34;73.31
8653;BME280;4364;52.426;9.424;2023-09-07T08:14:01;101779.56;;;20.45;72.03
8653;BME280;4364;52.426;9.424;2023-09-07T08:16:29;101770.03;;;20.60;71.07
8653;BME280;4364;52.426;9.424;2023-09-07T08:18:56;101786.34;;;20.70;70.96
8653;BME280;4364;52.426;9.424;2023-09-07T08:21:23;101769.97;;;20.83;70.68
8653;BME280;4364;52.426;9.424;2023-09-07T08:23:49;101772.28;;;20.98;69.25
8653;BME280;4364;52.426;9.424;2023-09-07T08:26:16;101777.47;;;21.00;69.70
8653;BME280;4364;52.426;9.424;2023-09-07T08:28:44;101771.00;;;21.13;69.25
8653;BME280;4364;52.426;9.424;2023-09-07T08:31:13;101776.88;;;21.38;68.01
8653;BME280;4364;52.426;9.424;2023-09-07T08:33:41;101772.03;;;21.43;68.41
8653;BME280;4364;52.426;9.424;2023-09-07T08:36:07;101770.59;;;21.63;66.89
8653;BME280;4364;52.426;9.424;2023-09-07T08:38:34;101776.94;;;21.64;67.77
8653;BME280;4364;52.426;9.424;2023-09-07T08:41:02;101775.28;;;21.80;67.10
8653;BME280;4364;52.426;9.424;2023-09-07T08:43:42;101772.84;;;21.88;66.21
8653;BME280;4364;52.426;9.424;2023-09-07T08:46:18;101786.16;;;22.03;65.94
8653;BME280;4364;52.426;9.424;2023-09-07T08:48:47;101778.09;;;22.36;63.06
8653;BME280;4364;52.426;9.424;2023-09-07T08:51:17;101779.22;;;22.44;64.21
8653;BME280;4364;52.426;9.424;2023-09-07T08:53:45;101777.41;;;22.57;62.62
8653;BME280;4364;52.426;9.424;2023-09-07T08:56:19;101775.13;;;22.89;61.25
8653;BME280;4364;52.426;9.424;2023-09-07T08:58:47;101783.63;;;22.84;61.62
8653;BME280;4364;52.426;9.424;2023-09-07T09:01:17;101776.84;;;22.93;61.10
8653;BME280;4364;52.426;9.424;2023-09-07T09:03:45;101772.25;;;23.06;60.13
8653;BME280;4364;52.426;9.424;2023-09-07T09:06:14;101779.03;;;23.18;60.71
8653;BME280;4364;52.426;9.424;2023-09-07T09:08:43;101781.41;;;23.49;58.21
8653;BME280;4364;52.426;9.424;2023-09-07T09:11:10;101785.03;;;23.62;57.71
8653;BME280;4364;52.426;9.424;2023-09-07T09:13:37;101779.69;;;23.57;58.75
8653;BME280;4364;52.426;9.424;2023-09-07T09:16:05;101784.50;;;23.68;58.04
8653;BME280;4364;52.426;9.424;2023-09-07T09:18:32;101773.47;;;23.81;58.33
8653;BME280;4364;52.426;9.424;2023-09-07T09:20:59;101777.84;;;24.15;56.85
8653;BME280;4364;52.426;9.424;2023-09-07T09:23:38;101772.41;;;24.19;58.46
8653;BME280;4364;52.426;9.424;2023-09-07T09:26:04;101770.84;;;24.42;56.17
8653;BME280;4364;52.426;9.424;2023-09-07T09:28:32;101772.91;;;24.46;56.19
8653;BME280;4364;52.426;9.424;2023-09-07T09:31:02;101774.94;;;24.57;56.21
8653;BME280;4364;52.426;9.424;2023-09-07T09:33:32;101781.56;;;24.77;54.71
8653;BME280;4364;52.426;9.424;2023-09-07T09:36:00;101772.97;;;24.95;53.77
8653;BME280;4364;52.426;9.424;2023-09-07T09:38:33;101772.59;;;24.96;53.59
8653;BME280;4364;52.426;9.424;2023-09-07T09:41:01;101775.59;;;25.04;53.84
8653;BME280;4364;52.426;9.424;2023-09-07T09:43:29;101766.28;;;25.37;52.50
8653;BME280;4364;52.426;9.424;2023-09-07T09:45:57;101758.84;;;25.41;52.20
8653;BME280;4364;52.426;9.424;2023-09-07T09:48:27;101759.69;;;25.41;51.74
8653;BME280;4364;52.426;9.424;2023-09-07T09:50:54;101760.66;;;25.49;52.26
8653;BME280;4364;52.426;9.424;2023-09-07T09:53:22;101760.06;;;25.56;52.23
8653;BME280;4364;52.426;9.424;2023-09-07T09:55:50;101753.75;;;25.71;51.72
8653;BME280;4364;52.426;9.424;2023-09-07T09:58:20;101748.66;;;25.89;51.77
8653;BME280;4364;52.426;9.424;2023-09-07T10:00:50;101754.38;;;26.09;50.85
8653;BME280;4364;52.426;9.424;2023-09-07T10:05:49;101740.28;;;26.33;49.92
8653;BME280;4364;52.426;9.424;2023-09-07T10:08:17;101741.72;;;26.43;49.27
8653;BME280;4364;52.426;9.424;2023-09-07T10:10:49;101743.59;;;26.55;48.09
8653;BME280;4364;52.426;9.424;2023-09-07T10:13:31;101736.38;;;26.54;48.12
8653;BME280;4364;52.426;9.424;2023-09-07T10:16:06;101742.75;;;26.54;47.77
8653;BME280;4364;52.426;9.424;2023-09-07T10:18:37;101736.03;;;26.71;47.67
8653;BME280;4364;52.426;9.424;2023-09-07T10:21:05;101737.28;;;26.90;46.78
8653;BME280;4364;52.426;9.424;2023-09-07T10:23:43;101732.78;;;26.85;47.20
8653;BME280;4364;52.426;9.424;2023-09-07T10:26:18;101723.09;;;26.98;46.58
8653;BME280;4364;52.426;9.424;2023-09-07T10:28:45;101729.44;;;27.15;46.48
8653;BME280;4364;52.426;9.424;2023-09-07T10:31:19;101725.53;;;27.20;47.06
8653;BME280;4364;52.426;9.424;2023-09-07T10:33:46;101722.47;;;27.44;46.22
8653;BME280;4364;52.426;9.424;2023-09-07T10:36:26;101720.78;;;27.40;46.35
8653;BME280;4364;52.426;9.424;2023-09-07T10:38:55;101723.63;;;27.24;46.38
8653;BME280;4364;52.426;9.424;2023-09-07T10:41:22;101730.91;;;27.28;47.13
8653;BME280;4364;52.426;9.424;2023-09-07T10:43:51;101722.09;;;27.46;46.08
8653;BME280;4364;52.426;9.424;2023-09-07T10:46:19;101726.22;;;27.52;46.04
8653;BME280;4364;52.426;9.424;2023-09-07T10:48:53;101718.63;;;27.72;45.97
8653;BME280;4364;52.426;9.424;2023-09-07T10:51:20;101716.44;;;27.62;46.13
8653;BME280;4364;52.426;9.424;2023-09-07T10:53:47;101705.34;;;27.65;45.71
8653;BME280;4364;52.426;9.424;2023-09-07T10:56:14;101709.69;;;27.86;45.09
8653;BME280;4364;52.426;9.424;2023-09-07T10:58:41;101709.03;;;27.93;44.17
8653;BME280;4364;52.426;9.424;2023-09-07T11:01:09;101711.09;;;27.96;44.48
8653;BME280;4364;52.426;9.424;2023-09-07T11:03:37;101713.75;;;27.88;45.26
8653;BME280;4364;52.426;9.424;2023-09-07T11:06:10;101701.91;;;27.95;44.50
8653;BME280;4364;52.426;9.424;2023-09-07T11:08:38;101702.97;;;28.10;43.18
8653;BME280;4364;52.426;9.424;2023-09-07T11:11:05;101694.97;;;28.08;43.02
8653;BME280;4364;52.426;9.424;2023-09-07T11:13:32;101700.44;;;28.28;43.41
8653;BME280;4364;52.426;9.424;2023-09-07T11:15:59;101702.13;;;28.33;42.43
8653;BME280;4364;52.426;9.424;2023-09-07T11:18:26;101704.56;;;28.34;42.41
8653;BME280;4364;52.426;9.424;2023-09-07T11:20:53;101690.09;;;28.28;43.09
8653;BME280;4364;52.426;9.424;2023-09-07T11:23:21;101696.16;;;28.34;42.89
8653;BME280;4364;52.426;9.424;2023-09-07T11:25:49;101693.28;;;28.54;41.91
8653;BME280;4364;52.426;9.424;2023-09-07T11:28:19;101693.66;;;28.52;41.56
8653;BME280;4364;52.426;9.424;2023-09-07T11:30:54;101691.41;;;28.38;42.25
8653;BME280;4364;52.426;9.424;2023-09-07T11:33:24;101686.00;;;28.49;43.30
8653;BME280;4364;52.426;9.424;2023-09-07T11:35:52;101691.41;;;28.38;42.40
8653;BME280;4364;52.426;9.424;2023-09-07T11:38:20;101689.44;;;28.62;41.98
8653;BME280;4364;52.426;9.424;2023-09-07T11:40:47;101692.13;;;28.85;41.44
8653;BME280;4364;52.426;9.424;2023-09-07T11:43:15;101687.78;;;28.88;41.43
8653;BME280;4364;52.426;9.424;2023-09-07T11:45:43;101680.88;;;28.81;41.81
8653;BME280;4364;52.426;9.424;2023-09-07T11:48:11;101681.59;;;29.05;41.20
8653;BME280;4364;52.426;9.424;2023-09-07T11:50:38;101678.47;;;29.10;41.05
8653;BME280;4364;52.426;9.424;2023-09-07T11:53:07;101677.22;;;29.08;40.01
8653;BME280;4364;52.426;9.424;2023-09-07T11:55:34;101672.53;;;29.15;40.55
8653;BME280;4364;52.426;9.424;2023-09-07T11:58:01;101666.94;;;29.15;40.09
8653;BME280;4364;52.426;9.424;2023-09-07T12:00:28;101673.19;;;29.05;40.78
8653;BME280;4364;52.426;9.424;2023-09-07T12:02:57;101660.66;;;29.22;40.27
8653;BME280;4364;52.426;9.424;2023-09-07T12:05:24;101664.25;;;29.23;40.03
8653;BME280;4364;52.426;9.424;2023-09-07T12:07:51;101663.16;;;29.34;39.70
8653;BME280;4364;52.426;9.424;2023-09-07T12:10:18;101662.19;;;29.19;39.91
8653;BME280;4364;52.426;9.424;2023-09-07T12:12:44;101651.13;;;29.30;39.61
8653;BME280;4364;52.426;9.424;2023-09-07T12:15:11;101657.63;;;29.42;39.68
8653;BME280;4364;52.426;9.424;2023-09-07T12:17:38;101649.38;;;29.52;38.74
8653;BME280;4364;52.426;9.424;2023-09-07T12:20:05;101647.91;;;29.69;38.70
8653;BME280;4364;52.426;9.424;2023-09-07T12:22:38;101645.81;;;29.59;38.54
8653;BME280;4364;52.426;9.424;2023-09-07T12:25:06;101638.63;;;29.62;38.61
8653;BME280;4364;52.426;9.424;2023-09-07T12:27:41;101646.75;;;29.74;38.27
8653;BME280;4364;52.426;9.424;2023-09-07T12:30:21;101641.91;;;29.67;37.88
8653;BME280;4364;52.426;9.424;2023-09-07T12:32:49;101628.91;;;29.48;38.99
8653;BME280;4364;52.426;9.424;2023-09-07T12:35:16;101628.97;;;29.55;38.82
8653;BME280;4364;52.426;9.424;2023-09-07T12:37:43;101637.25;;;29.82;37.87
8653;BME280;4364;52.426;9.424;2023-09-07T12:40:11;101632.00;;;29.77;37.88
8653;BME280;4364;52.426;9.424;2023-09-07T12:42:40;101627.28;;;29.88;37.93
8653;BME280;4364;52.426;9.424;2023-09-07T12:45:08;101627.38;;;29.96;37.88
8653;BME280;4364;52.426;9.424;2023-09-07T12:47:35;101627.16;;;29.74;38.38
8653;BME280;4364;52.426;9.424;2023-09-07T12:50:03;101616.16;;;29.99;38.38
8653;BME280;4364;52.426;9.424;2023-09-07T12:52:32;101619.59;;;29.78;38.45
8653;BME280;4364;52.426;9.424;2023-09-07T12:55:01;101619.38;;;30.01;37.80
8653;BME280;4364;52.426;9.424;2023-09-07T12:57:28;101614.69;;;29.71;38.81
8653;BME280;4364;52.426;9.424;2023-09-07T12:59:55;101613.28;;;29.92;38.09
8653;BME280;4364;52.426;9.424;2023-09-07T13:02:21;101615.31;;;29.95;37.85
8653;BME280;4364;52.426;9.424;2023-09-07T13:04:48;101616.16;;;29.96;37.84
8653;BME280;4364;52.426;9.424;2023-09-07T13:07:15;101604.63;;;30.11;37.18
8653;BME280;4364;52.426;9.424;2023-09-07T13:09:43;101606.97;;;30.02;37.99
8653;BME280;4364;52.426;9.424;2023-09-07T13:12:11;101591.06;;;30.17;38.00
8653;BME280;4364;52.426;9.424;2023-09-07T13:14:38;101590.19;;;30.09;38.37